Time;durP1;ratioP1;P1;durP2;ratioP2;P2;SDS_P1;SDS_P2;PMS_P1;PMS_P2;Temp;Humidity;BMP_temperature;BMP_pressure;BME280_temperature;BME280_humidity;BME280_pressure;Samples;Min_cycle;Max_cycle;Signal;HPM_P1;HPM_P2
2023/04/08 00:00:34;;;;;;;6.93;6.00;;;4.50;99.90;;;;;;5019808;28;20180;-58
2023/04/08 00:03:01;;;;;;;8.33;6.10;;;4.50;99.90;;;;;;5016034;28;20352;-59
2023/04/08 00:05:27;;;;;;;9.70;6.57;;;4.40;99.90;;;;;;5019482;28;20180;-58
2023/04/08 00:07:52;;;;;;;8.73;6.23;;;4.50;99.90;;;;;;5018644;28;20457;-59
2023/04/08 00:10:18;;;;;;;9.83;6.70;;;4.50;99.90;;;;;;5018793;28;20176;-58
2023/04/08 00:12:44;;;;;;;10.50;6.80;;;4.50;99.90;;;;;;5017397;28;20200;-57
2023/04/08 00:15:10;;;;;;;8.30;6.20;;;4.50;99.90;;;;;;5016751;28;20434;-59
2023/04/08 00:17:36;;;;;;;10.67;6.23;;;4.50;99.90;;;;;;5017917;28;20712;-58
2023/04/08 00:20:02;;;;;;;8.73;6.30;;;4.50;99.90;;;;;;5020215;28;20172;-57
2023/04/08 00:22:27;;;;;;;15.67;7.07;;;4.50;99.90;;;;;;5018773;28;20172;-58
2023/04/08 00:24:53;;;;;;;8.00;5.70;;;4.50;99.90;;;;;;5018437;28;20456;-59
2023/04/08 00:27:18;;;;;;;9.90;7.03;;;4.50;99.90;;;;;;5022450;28;20645;-58
2023/04/08 00:29:44;;;;;;;9.47;6.80;;;4.50;99.90;;;;;;5021985;28;20257;-59
2023/04/08 00:32:09;;;;;;;10.40;6.37;;;4.40;99.90;;;;;;5022934;28;20183;-58
2023/04/08 00:34:36;;;;;;;8.90;6.07;;;4.40;99.90;;;;;;5017050;28;20290;-58
2023/04/08 00:37:02;;;;;;;7.50;5.30;;;4.40;99.90;;;;;;5024190;28;20181;-59
2023/04/08 00:39:27;;;;;;;9.33;6.27;;;4.40;99.90;;;;;;5029498;28;20406;-59
2023/04/08 00:41:53;;;;;;;9.47;6.20;;;4.50;99.90;;;;;;5027384;28;20435;-57
2023/04/08 00:44:19;;;;;;;7.80;5.87;;;4.50;99.90;;;;;;5027760;28;20598;-59
2023/04/08 00:46:45;;;;;;;11.93;7.50;;;4.50;99.90;;;;;;5027833;28;20187;-58
2023/04/08 00:49:11;;;;;;;10.83;7.60;;;4.50;99.90;;;;;;5029686;28;20179;-58
2023/04/08 00:51:36;;;;;;;11.40;7.97;;;4.50;99.90;;;;;;5028726;28;20434;-59
2023/04/08 00:54:06;;;;;;;10.57;6.67;;;4.50;99.90;;;;;;5027057;28;21358;-58
2023/04/08 00:56:34;;;;;;;9.07;6.80;;;4.50;99.90;;;;;;5023726;28;20176;-57
2023/04/08 00:59:00;;;;;;;14.50;7.93;;;4.50;99.90;;;;;;5018767;28;20437;-57
2023/04/08 01:01:50;;;;;;;12.73;8.40;;;4.50;99.90;;;;;;5022160;28;20436;-56
2023/04/08 01:04:26;;;;;;;10.87;6.73;;;4.50;99.90;;;;;;5027089;28;20500;-57
2023/04/08 01:07:17;;;;;;;16.13;9.37;;;4.50;99.90;;;;;;5023633;28;20430;-57
2023/04/08 01:09:50;;;;;;;18.33;9.30;;;4.50;99.90;;;;;;5025585;28;20500;-59
2023/04/08 01:12:28;;;;;;;11.60;7.70;;;4.50;99.90;;;;;;5028065;28;20430;-57
2023/04/08 01:15:02;;;;;;;14.27;7.80;;;4.50;99.90;;;;;;5027861;28;20446;-58
2023/04/08 01:17:29;;;;;;;13.83;7.20;;;4.50;99.90;;;;;;5028123;28;20492;-56
2023/04/08 01:19:58;;;;;;;11.03;7.33;;;4.50;99.90;;;;;;5029221;28;20526;-58
2023/04/08 01:23:02;;;;;;;10.53;7.37;;;4.50;99.90;;;;;;5028232;28;20831;-57
2023/04/08 01:25:33;;;;;;;7.67;6.23;;;4.50;99.90;;;;;;5029396;28;20974;-57
2023/04/08 01:28:09;;;;;;;10.33;6.73;;;4.60;99.90;;;;;;5028021;28;20441;-57
2023/04/08 01:30:38;;;;;;;9.90;6.77;;;4.60;99.90;;;;;;5026280;28;20422;-57
2023/04/08 01:33:05;;;;;;;11.93;7.80;;;4.60;99.90;;;;;;5028963;28;20482;-57
2023/04/08 01:35:31;;;;;;;11.83;9.03;;;4.60;99.90;;;;;;5026313;28;20463;-57
2023/04/08 01:37:58;;;;;;;12.90;9.20;;;4.60;99.90;;;;;;5018882;28;20439;-57
2023/04/08 01:40:24;;;;;;;16.00;8.57;;;4.70;99.90;;;;;;5025115;28;20803;-57
2023/04/08 01:42:54;;;;;;;17.33;8.53;;;4.70;99.90;;;;;;5025811;28;20445;-57
2023/04/08 01:45:21;;;;;;;12.07;8.43;;;4.70;99.90;;;;;;5025531;28;20458;-57
2023/04/08 01:47:48;;;;;;;18.93;8.97;;;4.70;99.90;;;;;;5023719;28;20430;-57
2023/04/08 01:50:15;;;;;;;17.90;9.77;;;4.70;99.90;;;;;;5024832;28;20434;-57
2023/04/08 01:52:43;;;;;;;11.90;9.17;;;4.80;99.90;;;;;;5029479;28;20457;-57
2023/04/08 01:55:09;;;;;;;14.13;8.83;;;4.80;99.90;;;;;;5025075;28;20426;-58
2023/04/08 01:57:37;;;;;;;12.43;9.33;;;4.80;99.90;;;;;;5026232;28;20513;-58
2023/04/08 02:00:08;;;;;;;13.47;8.57;;;4.80;99.90;;;;;;5027409;28;20431;-57
2023/04/08 02:02:36;;;;;;;10.70;8.53;;;4.80;99.90;;;;;;5031390;28;20779;-57
2023/04/08 02:05:02;;;;;;;13.60;8.33;;;4.70;99.90;;;;;;5028168;28;20431;-57
2023/04/08 02:07:28;;;;;;;11.77;8.30;;;4.70;99.90;;;;;;5028866;28;20421;-57
2023/04/08 02:09:55;;;;;;;15.23;10.47;;;4.60;99.90;;;;;;5031426;28;20195;-57
2023/04/08 02:12:21;;;;;;;13.83;9.70;;;4.60;99.90;;;;;;5026810;28;20177;-57
2023/04/08 02:14:46;;;;;;;13.17;9.73;;;4.60;99.90;;;;;;5024352;28;20462;-57
2023/04/08 02:17:24;;;;;;;12.63;8.67;;;4.60;99.90;;;;;;5020452;28;20441;-58
2023/04/08 02:20:07;;;;;;;15.10;9.70;;;4.60;99.90;;;;;;5020465;28;20722;-57
2023/04/08 02:22:42;;;;;;;12.07;9.30;;;4.60;99.90;;;;;;5019533;28;20442;-57
2023/04/08 02:25:12;;;;;;;14.17;9.67;;;4.70;99.90;;;;;;5018599;28;20834;-58
2023/04/08 02:27:39;;;;;;;15.97;9.20;;;4.70;99.90;;;;;;5020963;28;20441;-58
2023/04/08 02:30:07;;;;;;;13.37;9.17;;;4.80;99.90;;;;;;5023988;28;20431;-57
2023/04/08 02:32:34;;;;;;;15.27;10.30;;;4.80;99.90;;;;;;5025288;28;20434;-58
2023/04/08 02:35:02;;;;;;;14.13;9.10;;;4.80;99.90;;;;;;5022675;28;21037;-58
2023/04/08 02:37:29;;;;;;;17.50;10.33;;;4.90;99.90;;;;;;5025716;28;20430;-57
2023/04/08 02:39:55;;;;;;;16.90;10.57;;;4.90;99.90;;;;;;5024582;28;20809;-57
2023/04/08 02:42:20;;;;;;;17.20;10.83;;;4.90;99.90;;;;;;5026759;28;20450;-58
2023/04/08 02:44:46;;;;;;;17.03;10.80;;;4.90;99.90;;;;;;5024558;28;20594;-58
2023/04/08 02:47:12;;;;;;;18.20;10.80;;;4.90;99.90;;;;;;5020432;28;20186;-57
2023/04/08 02:49:37;;;;;;;17.17;10.67;;;5.00;99.90;;;;;;5028814;28;20184;-57
2023/04/08 02:52:03;;;;;;;19.93;11.37;;;5.00;99.90;;;;;;5018875;28;20172;-59
2023/04/08 02:54:29;;;;;;;17.20;11.10;;;5.00;99.90;;;;;;5019437;28;20200;-59
2023/04/08 02:56:55;;;;;;;14.53;9.60;;;5.00;99.90;;;;;;5020922;28;20576;-58
2023/04/08 02:59:20;;;;;;;16.67;10.03;;;5.10;99.90;;;;;;5021824;28;20433;-57
2023/04/08 03:01:46;;;;;;;15.33;10.03;;;5.00;99.90;;;;;;5024237;28;20187;-58
2023/04/08 03:04:11;;;;;;;17.07;10.77;;;5.00;99.90;;;;;;5026787;28;20217;-58
2023/04/08 03:06:37;;;;;;;17.57;10.27;;;5.00;99.90;;;;;;5026375;28;20179;-58
2023/04/08 03:09:04;;;;;;;16.87;10.80;;;5.00;99.90;;;;;;5027685;28;20172;-58
2023/04/08 03:11:30;;;;;;;16.70;10.80;;;5.00;99.90;;;;;;5025674;28;20174;-57
2023/04/08 03:13:56;;;;;;;17.67;10.67;;;5.00;99.90;;;;;;5025891;28;20470;-58
2023/04/08 03:16:22;;;;;;;19.60;11.53;;;5.00;99.90;;;;;;5023319;28;20458;-58
2023/04/08 03:18:49;;;;;;;16.77;10.40;;;5.10;99.90;;;;;;5027533;28;20187;-58
2023/04/08 03:21:15;;;;;;;16.03;10.57;;;5.10;99.90;;;;;;5024789;28;20174;-58
2023/04/08 03:23:41;;;;;;;16.30;10.30;;;5.10;99.90;;;;;;5025841;28;20541;-58
2023/04/08 03:26:06;;;;;;;16.33;10.43;;;5.20;99.90;;;;;;5025794;28;20172;-60
2023/04/08 03:28:32;;;;;;;15.77;9.40;;;5.20;99.90;;;;;;5027009;28;20699;-59
2023/04/08 03:30:59;;;;;;;15.97;9.60;;;5.20;99.90;;;;;;5022358;28;20183;-58
2023/04/08 03:33:25;;;;;;;18.33;11.67;;;5.20;99.90;;;;;;5024293;28;20258;-58
2023/04/08 03:35:52;;;;;;;18.93;10.53;;;5.20;99.90;;;;;;5023949;28;20522;-58
2023/04/08 03:38:18;;;;;;;18.13;11.03;;;5.20;99.90;;;;;;5023564;28;20426;-58
2023/04/08 03:40:43;;;;;;;17.73;10.00;;;5.20;99.90;;;;;;5020894;28;20504;-58
2023/04/08 03:43:10;;;;;;;19.43;10.60;;;5.30;99.90;;;;;;5023650;28;20840;-59
2023/04/08 03:45:36;;;;;;;16.30;10.00;;;5.20;99.90;;;;;;5020838;28;20176;-58
2023/04/08 03:48:02;;;;;;;25.40;12.43;;;5.30;99.90;;;;;;5022660;28;20550;-58
2023/04/08 03:50:27;;;;;;;19.60;11.23;;;5.30;99.90;;;;;;5025277;28;20880;-58
2023/04/08 03:52:53;;;;;;;19.10;11.07;;;5.30;99.90;;;;;;5024800;28;20257;-61
2023/04/08 03:55:19;;;;;;;18.53;11.30;;;5.30;99.90;;;;;;5024106;28;20176;-58
2023/04/08 03:57:45;;;;;;;16.37;10.47;;;5.30;99.90;;;;;;5024605;28;20183;-58
2023/04/08 04:00:11;;;;;;;15.40;9.80;;;5.30;99.90;;;;;;5022377;28;20688;-58
2023/04/08 04:02:36;;;;;;;13.67;9.20;;;5.30;99.90;;;;;;4978784;28;1088486;-60
2023/04/08 04:05:02;;;;;;;14.03;9.37;;;5.20;99.90;;;;;;5012948;28;20442;-58
2023/04/08 04:07:28;;;;;;;13.53;8.73;;;5.20;99.90;;;;;;5017457;28;20182;-58
2023/04/08 04:09:55;;;;;;;14.57;9.50;;;5.00;99.90;;;;;;5019095;28;20206;-58
2023/04/08 04:12:21;;;;;;;13.93;9.00;;;4.90;99.90;;;;;;5015071;28;21039;-58
2023/04/08 04:14:47;;;;;;;12.30;9.47;;;4.80;99.90;;;;;;5019024;28;20477;-58
2023/04/08 04:17:13;;;;;;;13.80;9.13;;;4.70;99.90;;;;;;5019112;28;20431;-59
2023/04/08 04:19:38;;;;;;;17.60;8.77;;;4.60;99.90;;;;;;5020228;28;20176;-58
2023/04/08 04:22:04;;;;;;;13.77;9.07;;;4.60;99.90;;;;;;5017998;28;20172;-59
2023/04/08 04:24:30;;;;;;;15.93;8.87;;;4.50;99.90;;;;;;5016775;28;20270;-58
2023/04/08 04:26:55;;;;;;;15.87;9.80;;;4.50;99.90;;;;;;5015827;28;21108;-58
2023/04/08 04:29:21;;;;;;;13.03;8.60;;;4.50;99.90;;;;;;5016860;28;20176;-58
2023/04/08 04:31:46;;;;;;;15.20;9.70;;;4.40;99.90;;;;;;5018052;28;20183;-59
2023/04/08 04:34:12;;;;;;;12.73;9.43;;;4.40;99.90;;;;;;5018031;28;20227;-58
2023/04/08 04:36:37;;;;;;;14.43;9.67;;;4.40;99.90;;;;;;5023607;28;20177;-58
2023/04/08 04:39:03;;;;;;;13.83;10.50;;;4.40;99.90;;;;;;5025449;28;20175;-59
2023/04/08 04:41:29;;;;;;;14.77;10.30;;;4.40;99.90;;;;;;5020232;28;20293;-59
2023/04/08 04:43:54;;;;;;;14.73;9.90;;;4.40;99.90;;;;;;5023761;28;20249;-59
2023/04/08 04:46:20;;;;;;;17.27;10.40;;;4.40;99.90;;;;;;5025342;28;20197;-58
2023/04/08 04:48:46;;;;;;;16.87;9.80;;;4.40;99.90;;;;;;5020437;28;20184;-58
2023/04/08 04:51:11;;;;;;;15.40;9.90;;;4.40;99.90;;;;;;5022235;28;20184;-60
2023/04/08 04:53:37;;;;;;;14.77;9.50;;;4.40;99.90;;;;;;5024264;28;20297;-59
2023/04/08 04:56:02;;;;;;;15.23;9.53;;;4.40;99.90;;;;;;5017947;28;20176;-58
2023/04/08 04:58:28;;;;;;;14.03;8.90;;;4.50;99.90;;;;;;5024598;28;20171;-60
2023/04/08 05:00:55;;;;;;;14.30;9.67;;;4.50;99.90;;;;;;5015056;28;20179;-60
2023/04/08 05:03:20;;;;;;;12.60;9.13;;;4.50;99.90;;;;;;5019456;28;20458;-59
2023/04/08 05:05:51;;;;;;;17.97;10.57;;;4.50;99.90;;;;;;5017604;28;20974;-59
2023/04/08 05:08:16;;;;;;;15.30;9.93;;;4.50;99.90;;;;;;5019976;28;20659;-59
2023/04/08 05:10:42;;;;;;;16.20;10.40;;;4.60;99.90;;;;;;5021090;28;20434;-60
2023/04/08 05:13:08;;;;;;;16.47;10.30;;;4.60;99.90;;;;;;5019279;28;20222;-59
2023/04/08 05:15:34;;;;;;;13.83;10.00;;;4.60;99.90;;;;;;5023673;28;20230;-59
2023/04/08 05:18:00;;;;;;;15.47;10.50;;;4.70;99.90;;;;;;5025395;28;20183;-59
2023/04/08 05:20:25;;;;;;;19.47;11.23;;;4.70;99.90;;;;;;5016943;28;20898;-59
2023/04/08 05:22:51;;;;;;;16.00;11.60;;;4.80;99.90;;;;;;5021669;28;20183;-59
2023/04/08 05:25:16;;;;;;;18.20;11.47;;;4.80;99.90;;;;;;5022758;28;20179;-58
2023/04/08 05:27:42;;;;;;;15.40;9.77;;;4.80;99.90;;;;;;5021979;28;20696;-59
2023/04/08 05:30:08;;;;;;;17.17;11.03;;;4.80;99.90;;;;;;5019811;28;20184;-59
2023/04/08 05:32:34;;;;;;;13.20;8.27;;;4.80;99.90;;;;;;5021100;28;20184;-59
2023/04/08 05:35:02;;;;;;;15.60;10.50;;;4.80;99.90;;;;;;5012560;28;20478;-59
2023/04/08 05:37:28;;;;;;;13.67;9.57;;;4.80;99.90;;;;;;5027276;28;20176;-59
2023/04/08 05:39:53;;;;;;;14.57;9.90;;;4.80;99.90;;;;;;5023515;28;20980;-58
2023/04/08 05:42:19;;;;;;;13.20;9.47;;;4.70;99.90;;;;;;5024079;28;20172;-57
2023/04/08 05:44:45;;;;;;;15.97;10.27;;;4.70;99.90;;;;;;5021992;28;20192;-57
2023/04/08 05:47:10;;;;;;;17.60;11.00;;;4.70;99.90;;;;;;5018523;28;20306;-57
2023/04/08 05:49:36;;;;;;;19.20;12.27;;;4.70;99.90;;;;;;5021326;28;20187;-58
2023/04/08 05:52:02;;;;;;;16.57;11.20;;;4.70;99.90;;;;;;5021904;28;20190;-59
2023/04/08 05:54:28;;;;;;;13.90;9.90;;;4.70;99.90;;;;;;5025988;28;20199;-59
2023/04/08 05:56:54;;;;;;;15.50;10.23;;;4.70;99.90;;;;;;5027948;28;20431;-58
2023/04/08 05:59:19;;;;;;;14.60;9.73;;;4.70;99.90;;;;;;5030767;28;21021;-58
2023/04/08 06:01:45;;;;;;;15.77;10.77;;;4.80;99.90;;;;;;5019511;28;20183;-58
2023/04/08 06:04:11;;;;;;;12.50;9.30;;;4.80;99.90;;;;;;5021809;28;20246;-58
2023/04/08 06:06:40;;;;;;;17.90;9.30;;;4.80;99.90;;;;;;5023402;28;20188;-59
2023/04/08 06:09:05;;;;;;;18.17;11.00;;;4.80;99.90;;;;;;5026783;28;20184;-58
2023/04/08 06:11:31;;;;;;;16.33;10.03;;;4.80;99.90;;;;;;5018858;28;21451;-58
2023/04/08 06:13:57;;;;;;;14.30;10.10;;;4.80;99.90;;;;;;5019251;28;20666;-58
2023/04/08 06:16:22;;;;;;;17.23;11.27;;;4.90;99.90;;;;;;5022321;28;20187;-58
2023/04/08 06:18:48;;;;;;;17.00;11.20;;;4.90;99.90;;;;;;5026032;28;20172;-58
2023/04/08 06:21:14;;;;;;;16.13;11.53;;;5.00;99.90;;;;;;5025583;28;20184;-57
2023/04/08 06:23:40;;;;;;;18.67;10.57;;;5.10;99.90;;;;;;5026994;28;20200;-57
2023/04/08 06:26:05;;;;;;;21.13;12.57;;;5.20;99.90;;;;;;5023372;28;20641;-59
2023/04/08 06:28:31;;;;;;;20.10;12.07;;;5.20;99.90;;;;;;5021651;28;20461;-58
2023/04/08 06:30:58;;;;;;;18.63;10.30;;;5.30;99.90;;;;;;5022863;28;20191;-58
2023/04/08 06:33:24;;;;;;;15.60;10.67;;;5.50;99.90;;;;;;5020952;28;20490;-59
2023/04/08 06:35:49;;;;;;;17.80;12.37;;;5.50;99.90;;;;;;5023178;28;20947;-59
2023/04/08 06:38:15;;;;;;;17.40;12.77;;;5.60;99.90;;;;;;5025944;28;20434;-59
2023/04/08 06:40:41;;;;;;;20.37;12.40;;;5.70;99.90;;;;;;5018570;28;20199;-58
2023/04/08 06:43:06;;;;;;;16.50;10.97;;;5.80;99.90;;;;;;5012313;28;20794;-58
2023/04/08 06:45:33;;;;;;;18.30;11.30;;;5.80;99.90;;;;;;5026522;28;20183;-58
2023/04/08 06:47:59;;;;;;;19.67;11.80;;;5.90;99.90;;;;;;5018478;28;20653;-59
2023/04/08 06:50:25;;;;;;;15.63;10.80;;;5.90;99.90;;;;;;5021578;28;20435;-58
2023/04/08 06:52:51;;;;;;;16.00;10.50;;;5.90;99.90;;;;;;5022228;28;20187;-59
2023/04/08 06:55:16;;;;;;;19.20;11.67;;;5.90;99.90;;;;;;5014513;28;21023;-58
2023/04/08 06:57:42;;;;;;;19.70;11.47;;;6.00;99.90;;;;;;5016005;28;20187;-59
2023/04/08 07:00:08;;;;;;;16.00;11.20;;;6.00;99.90;;;;;;5021152;28;20675;-58
2023/04/08 07:02:34;;;;;;;18.23;12.57;;;6.00;99.90;;;;;;5025380;28;20168;-57
2023/04/08 07:04:59;;;;;;;23.70;13.97;;;6.00;99.90;;;;;;5027096;28;20489;-58
2023/04/08 07:07:25;;;;;;;18.67;13.00;;;6.00;99.90;;;;;;5025681;28;20176;-58
2023/04/08 07:09:51;;;;;;;17.00;11.90;;;6.00;99.90;;;;;;5022683;28;20187;-59
2023/04/08 07:12:16;;;;;;;18.63;12.23;;;6.10;99.90;;;;;;5024052;28;20199;-58
2023/04/08 07:14:42;;;;;;;19.90;12.73;;;6.10;99.90;;;;;;5029728;28;20207;-58
2023/04/08 07:17:07;;;;;;;18.13;11.63;;;6.10;99.90;;;;;;5024664;28;20835;-58
2023/04/08 07:19:33;;;;;;;18.40;12.30;;;6.20;99.90;;;;;;5022127;28;20263;-57
2023/04/08 07:21:59;;;;;;;17.27;11.20;;;6.20;99.90;;;;;;5025869;28;20266;-58
2023/04/08 07:24:25;;;;;;;19.00;11.07;;;6.30;99.90;;;;;;5018649;28;20853;-57
2023/04/08 07:26:51;;;;;;;20.27;12.40;;;6.40;99.90;;;;;;5020602;28;20428;-58
2023/04/08 07:29:16;;;;;;;17.70;10.90;;;6.50;99.90;;;;;;5025191;28;20739;-58
2023/04/08 07:31:43;;;;;;;23.30;12.70;;;6.60;99.90;;;;;;5016211;28;20434;-58
2023/04/08 07:34:09;;;;;;;17.43;10.67;;;6.70;99.90;;;;;;5014083;28;20822;-57
2023/04/08 07:36:35;;;;;;;17.60;11.70;;;6.80;99.90;;;;;;5019561;28;20443;-58
2023/04/08 07:39:01;;;;;;;17.10;10.77;;;6.80;99.90;;;;;;5019527;28;20435;-58
2023/04/08 07:41:27;;;;;;;19.27;11.20;;;6.90;99.90;;;;;;5016923;28;20752;-58
2023/04/08 07:43:52;;;;;;;17.93;11.13;;;6.90;99.90;;;;;;5021481;28;21095;-58
2023/04/08 07:46:19;;;;;;;15.93;10.60;;;6.90;99.90;;;;;;5018922;28;20656;-58
2023/04/08 07:48:45;;;;;;;18.00;10.10;;;6.90;99.90;;;;;;5014457;28;20248;-58
2023/04/08 07:51:11;;;;;;;17.40;10.70;;;6.90;99.90;;;;;;5016102;28;20972;-58
2023/04/08 07:53:37;;;;;;;14.80;8.60;;;6.90;99.90;;;;;;5017167;28;20215;-57
2023/04/08 07:56:09;;;;;;;14.10;9.77;;;6.90;99.90;;;;;;5017134;28;20574;-58
2023/04/08 07:58:35;;;;;;;14.17;8.63;;;7.00;99.90;;;;;;5018808;28;20803;-58
2023/04/08 08:01:00;;;;;;;23.83;9.53;;;7.00;99.90;;;;;;5012787;28;20418;-58
2023/04/08 08:03:26;;;;;;;11.33;7.73;;;7.00;99.90;;;;;;5019392;28;20226;-58
2023/04/08 08:05:52;;;;;;;15.63;9.93;;;7.00;99.90;;;;;;5016417;28;20245;-58
2023/04/08 08:08:17;;;;;;;15.43;9.37;;;7.10;99.90;;;;;;5013749;28;20683;-58
2023/04/08 08:10:43;;;;;;;13.33;8.80;;;7.10;99.90;;;;;;5017500;28;20672;-58
2023/04/08 08:13:08;;;;;;;13.57;9.13;;;7.10;99.90;;;;;;5019693;28;20294;-58
2023/04/08 08:15:34;;;;;;;12.10;8.30;;;7.20;99.90;;;;;;5015231;28;20176;-58
2023/04/08 08:18:00;;;;;;;10.47;7.40;;;7.20;99.90;;;;;;5015403;28;20185;-59
2023/04/08 08:20:26;;;;;;;10.70;8.00;;;7.30;99.90;;;;;;5012083;28;20172;-59
2023/04/08 08:22:51;;;;;;;9.27;7.20;;;7.30;99.90;;;;;;5016105;28;20275;-58
2023/04/08 08:25:17;;;;;;;10.53;7.47;;;7.30;99.90;;;;;;5015557;28;20624;-59
2023/04/08 08:27:44;;;;;;;9.87;6.60;;;7.30;99.90;;;;;;5009580;28;20172;-58
2023/04/08 08:30:10;;;;;;;9.87;6.97;;;7.30;99.90;;;;;;5010427;28;20175;-58
2023/04/08 08:32:36;;;;;;;9.80;6.30;;;7.30;99.90;;;;;;5007853;28;20446;-59
2023/04/08 08:35:01;;;;;;;14.17;7.63;;;7.30;99.90;;;;;;5014063;28;20618;-58
2023/04/08 08:37:27;;;;;;;11.80;8.10;;;7.30;99.90;;;;;;5015572;28;20430;-58
2023/04/08 08:39:53;;;;;;;8.80;6.23;;;7.30;99.90;;;;;;5014679;28;20183;-57
2023/04/08 08:42:21;;;;;;;9.70;6.60;;;7.30;99.90;;;;;;5014718;28;20250;-58
2023/04/08 08:44:47;;;;;;;9.60;6.90;;;7.30;99.90;;;;;;5031951;28;20207;-59
2023/04/08 08:47:14;;;;;;;9.53;7.07;;;7.30;99.90;;;;;;5013935;28;20431;-59
2023/04/08 08:49:40;;;;;;;13.07;7.13;;;7.30;99.90;;;;;;5019282;28;20516;-59
2023/04/08 08:52:06;;;;;;;11.83;7.47;;;7.30;99.90;;;;;;5019230;28;20446;-58
2023/04/08 08:54:31;;;;;;;9.00;6.67;;;7.20;99.90;;;;;;5020353;28;20535;-58
2023/04/08 08:56:57;;;;;;;13.00;7.33;;;7.30;99.90;;;;;;5034496;28;20180;-59
2023/04/08 08:59:22;;;;;;;10.40;7.50;;;7.30;99.90;;;;;;5021019;28;20654;-57
2023/04/08 09:01:48;;;;;;;9.17;6.80;;;7.20;99.90;;;;;;5018828;28;20646;-60
2023/04/08 09:04:18;;;;;;;10.30;7.07;;;7.20;99.90;;;;;;5021739;28;20218;-58
2023/04/08 09:06:49;;;;;;;9.00;6.93;;;7.20;99.90;;;;;;5023908;28;20215;-58
2023/04/08 09:09:16;;;;;;;11.17;7.60;;;7.30;99.90;;;;;;5021012;28;20422;-58
2023/04/08 09:11:44;;;;;;;10.80;7.50;;;7.30;99.90;;;;;;5022749;28;20533;-58
2023/04/08 09:14:17;;;;;;;12.87;7.80;;;7.30;99.90;;;;;;5024746;28;20500;-58
2023/04/08 09:16:43;;;;;;;10.97;8.03;;;7.40;99.90;;;;;;5027106;28;20923;-58
2023/04/08 09:19:10;;;;;;;12.00;8.20;;;7.40;99.90;;;;;;5023913;28;20446;-58
2023/04/08 09:21:36;;;;;;;10.47;7.90;;;7.50;99.90;;;;;;5023644;28;21221;-58
2023/04/08 09:24:02;;;;;;;9.47;7.07;;;7.60;99.90;;;;;;5024447;28;20943;-58
2023/04/08 09:26:28;;;;;;;9.40;7.40;;;7.60;99.90;;;;;;5015739;28;20438;-57
2023/04/08 09:29:00;;;;;;;11.60;8.37;;;7.60;99.90;;;;;;5023591;28;20670;-58
2023/04/08 09:31:28;;;;;;;10.33;7.57;;;7.70;99.90;;;;;;5018259;28;20784;-58
2023/04/08 09:33:59;;;;;;;9.27;7.13;;;7.70;99.90;;;;;;5019994;28;21122;-58
2023/04/08 09:36:26;;;;;;;8.80;6.80;;;7.70;99.90;;;;;;5022630;28;21043;-58
2023/04/08 09:38:52;;;;;;;9.43;7.03;;;7.70;99.90;;;;;;5015849;28;21061;-59
2023/04/08 09:41:19;;;;;;;9.97;7.10;;;7.60;99.90;;;;;;5040806;22;20593;-57
2023/04/08 09:43:50;;;;;;;11.93;7.27;;;7.60;99.90;;;;;;5023850;28;20542;-59
2023/04/08 09:46:18;;;;;;;9.87;7.23;;;7.60;99.90;;;;;;5018658;28;20546;-58
2023/04/08 09:48:57;;;;;;;9.37;6.73;;;7.60;99.90;;;;;;5023892;28;20430;-59
2023/04/08 09:51:24;;;;;;;11.37;6.60;;;7.60;99.90;;;;;;5011763;28;20567;-55
2023/04/08 09:53:58;;;;;;;9.63;6.40;;;7.70;99.90;;;;;;5007182;28;20499;-56
2023/04/08 09:56:25;;;;;;;12.60;7.80;;;7.70;99.90;;;;;;5001328;28;20530;-58
2023/04/08 09:58:57;;;;;;;8.83;6.60;;;7.70;99.90;;;;;;4997318;28;20428;-58
2023/04/08 10:01:36;;;;;;;12.53;7.57;;;7.80;99.90;;;;;;5018475;28;20443;-57
2023/04/08 10:04:06;;;;;;;9.67;6.50;;;7.80;99.90;;;;;;4997147;28;21081;-56
2023/04/08 10:06:34;;;;;;;10.27;6.23;;;7.80;99.90;;;;;;5009002;28;20502;-58
2023/04/08 10:09:01;;;;;;;7.00;5.30;;;7.80;99.90;;;;;;5003043;28;20896;-58
2023/04/08 10:11:29;;;;;;;5.43;4.40;;;7.80;99.90;;;;;;4987991;28;20524;-59
2023/04/08 10:13:55;;;;;;;6.10;4.50;;;7.80;99.90;;;;;;4988774;28;20521;-55
2023/04/08 10:16:23;;;;;;;6.50;5.27;;;7.80;99.90;;;;;;4984124;28;20427;-57
2023/04/08 10:18:54;;;;;;;7.07;5.30;;;7.80;99.90;;;;;;4995174;28;20189;-54
2023/04/08 10:21:42;;;;;;;5.83;4.30;;;7.80;99.90;;;;;;4999439;28;20454;-55
2023/04/08 10:24:09;;;;;;;7.07;4.60;;;7.80;99.90;;;;;;4996417;28;21044;-53
2023/04/08 10:26:37;;;;;;;4.63;4.00;;;7.90;99.90;;;;;;4998098;28;21070;-56
2023/04/08 10:29:18;;;;;;;4.47;3.67;;;7.90;99.90;;;;;;5002090;28;20482;-58
2023/04/08 10:31:50;;;;;;;5.77;4.80;;;8.00;99.90;;;;;;5000562;28;20534;-54
2023/04/08 10:34:17;;;;;;;5.57;4.50;;;8.00;99.90;;;;;;5010722;28;20463;-55
2023/04/08 10:36:44;;;;;;;5.70;5.10;;;8.10;99.90;;;;;;5002748;28;20466;-57
2023/04/08 10:39:11;;;;;;;5.20;4.60;;;8.10;99.90;;;;;;5001629;28;20459;-54
2023/04/08 10:41:46;;;;;;;6.53;5.53;;;8.20;99.90;;;;;;5005422;28;20464;-54
2023/04/08 10:44:19;;;;;;;7.70;5.33;;;8.30;99.90;;;;;;5014799;28;20437;-56
2023/04/08 10:46:46;;;;;;;10.77;6.17;;;8.30;99.90;;;;;;5001096;28;20442;-58
2023/04/08 10:49:12;;;;;;;6.53;5.50;;;8.40;99.90;;;;;;4996660;28;20457;-57
2023/04/08 10:51:38;;;;;;;6.63;5.93;;;8.40;99.90;;;;;;4986938;28;20456;-57
2023/04/08 10:54:15;;;;;;;6.30;5.27;;;8.40;99.90;;;;;;4991835;28;20474;-57
2023/04/08 10:56:52;;;;;;;7.17;5.57;;;8.50;99.90;;;;;;5003627;28;20438;-58
2023/04/08 10:59:33;;;;;;;6.07;5.30;;;8.50;99.90;;;;;;4995285;28;20514;-57
2023/04/08 11:02:00;;;;;;;6.90;5.20;;;8.50;99.90;;;;;;5001527;28;20534;-57
2023/04/08 11:04:26;;;;;;;7.93;6.23;;;8.50;99.90;;;;;;4996047;28;20440;-56
2023/04/08 11:06:51;;;;;;;7.90;5.00;;;8.50;99.90;;;;;;4996684;28;20471;-57
2023/04/08 11:09:17;;;;;;;7.23;5.30;;;8.40;99.90;;;;;;4997038;28;20519;-57
2023/04/08 11:11:44;;;;;;;5.23;4.60;;;8.40;99.90;;;;;;4995770;28;20203;-57
2023/04/08 11:14:11;;;;;;;6.13;4.80;;;8.40;99.90;;;;;;4994718;28;20287;-57
2023/04/08 11:16:38;;;;;;;8.40;6.37;;;8.30;99.90;;;;;;4992830;28;20519;-57
2023/04/08 11:19:04;;;;;;;8.20;6.33;;;8.30;99.90;;;;;;4994363;28;20427;-58
2023/04/08 11:21:37;;;;;;;8.20;6.97;;;8.30;99.90;;;;;;5004649;28;20456;-57
2023/04/08 11:24:08;;;;;;;9.23;6.90;;;8.30;99.90;;;;;;5009418;28;20439;-57
2023/04/08 11:26:36;;;;;;;8.20;6.00;;;8.30;99.90;;;;;;5005758;28;20443;-59
2023/04/08 11:29:02;;;;;;;8.40;6.37;;;8.30;99.90;;;;;;5000556;28;20465;-58
2023/04/08 11:31:29;;;;;;;9.80;7.00;;;8.30;99.90;;;;;;5002712;28;20550;-58
2023/04/08 11:33:55;;;;;;;8.40;6.47;;;8.30;99.90;;;;;;5000544;28;20980;-57
2023/04/08 11:36:21;;;;;;;7.50;5.80;;;8.30;99.90;;;;;;5000581;28;20432;-59
2023/04/08 11:38:46;;;;;;;9.20;6.90;;;8.30;99.90;;;;;;4992069;28;20459;-57
2023/04/08 11:41:13;;;;;;;8.87;6.23;;;8.30;99.90;;;;;;4992589;28;20222;-56
2023/04/08 11:43:39;;;;;;;7.60;6.33;;;8.40;99.90;;;;;;4992751;28;20646;-58
2023/04/08 11:46:10;;;;;;;7.13;5.83;;;8.50;99.90;;;;;;5002795;28;20445;-59
2023/04/08 11:48:37;;;;;;;9.57;7.50;;;8.50;99.90;;;;;;4990143;28;20436;-58
2023/04/08 11:51:04;;;;;;;11.73;9.07;;;8.60;99.90;;;;;;4995074;28;20452;-57
2023/04/08 11:53:30;;;;;;;14.70;8.57;;;8.60;99.90;;;;;;4990669;28;20464;-59
2023/04/08 11:55:56;;;;;;;9.50;7.27;;;8.70;99.90;;;;;;5000865;28;20434;-58
2023/04/08 11:58:22;;;;;;;9.90;7.43;;;8.70;99.90;;;;;;4995546;28;20188;-58
2023/04/08 12:00:48;;;;;;;8.67;7.20;;;8.70;99.90;;;;;;4993384;28;20531;-59
2023/04/08 12:03:13;;;;;;;9.47;7.60;;;8.80;99.90;;;;;;5003605;28;20173;-57
2023/04/08 12:05:39;;;;;;;9.03;7.53;;;8.80;99.90;;;;;;4995407;28;20435;-58
2023/04/08 12:08:05;;;;;;;10.20;7.47;;;8.90;99.90;;;;;;5000601;28;20192;-57
2023/04/08 12:10:31;;;;;;;9.60;7.30;;;8.90;99.90;;;;;;4995836;28;20772;-59
2023/04/08 12:12:57;;;;;;;8.70;6.83;;;9.00;99.90;;;;;;4999974;28;20223;-58
2023/04/08 12:15:22;;;;;;;7.63;6.67;;;9.00;99.90;;;;;;4992390;28;21014;-59
2023/04/08 12:17:48;;;;;;;9.97;7.00;;;9.00;99.90;;;;;;4996090;28;20232;-58
2023/04/08 12:20:15;;;;;;;10.27;8.10;;;9.00;99.90;;;;;;5001713;28;20169;-60
2023/04/08 12:22:41;;;;;;;8.90;6.90;;;9.00;99.90;;;;;;4996329;28;20211;-58
2023/04/08 12:25:07;;;;;;;10.93;7.43;;;9.00;99.90;;;;;;4999768;28;20643;-58
2023/04/08 12:27:33;;;;;;;9.40;6.73;;;8.90;99.90;;;;;;4998455;28;20861;-57
2023/04/08 12:29:59;;;;;;;11.20;8.60;;;8.90;99.90;;;;;;4998869;28;20443;-59
2023/04/08 12:32:25;;;;;;;11.90;8.03;;;8.80;99.90;;;;;;5002352;28;20354;-58
2023/04/08 12:34:51;;;;;;;12.70;8.80;;;8.80;99.90;;;;;;5003424;28;20575;-58
2023/04/08 12:37:17;;;;;;;12.20;8.90;;;8.70;99.90;;;;;;5001569;28;20169;-58
2023/04/08 12:39:42;;;;;;;13.17;9.00;;;8.60;99.90;;;;;;5005036;28;20260;-58
2023/04/08 12:42:08;;;;;;;11.40;8.50;;;8.50;99.90;;;;;;5003685;28;20318;-61
2023/04/08 12:44:34;;;;;;;11.50;8.43;;;8.50;99.90;;;;;;5007387;28;20550;-58